createdAt,value
2018-08-27T00:00:28.314Z,0.93
2018-08-27T00:03:58.833Z,1.27
2018-08-27T00:06:26.146Z,1.20
2018-08-27T00:08:53.901Z,1.00
2018-08-27T00:11:21.538Z,1.23
2018-08-27T00:13:48.925Z,1.00
2018-08-27T00:16:16.659Z,1.20
2018-08-27T00:18:43.867Z,1.20
2018-08-27T00:21:11.724Z,1.13
2018-08-27T00:23:39.208Z,1.53
2018-08-27T00:26:07.054Z,1.30
2018-08-27T00:28:34.302Z,1.20
2018-08-27T00:31:01.692Z,1.27
2018-08-27T00:33:29.182Z,1.30
2018-08-27T00:35:58.115Z,1.17
2018-08-27T00:38:25.792Z,1.30
2018-08-27T00:40:53.600Z,1.53
2018-08-27T00:43:21.686Z,1.40
2018-08-27T00:45:48.938Z,1.30
2018-08-27T00:48:17.016Z,1.40
2018-08-27T00:50:44.346Z,1.20
2018-08-27T00:53:11.867Z,1.50
2018-08-27T00:55:39.102Z,1.30
2018-08-27T00:58:06.738Z,1.47
2018-08-27T01:00:33.982Z,1.37
2018-08-27T01:03:01.412Z,1.20
2018-08-27T01:05:28.998Z,1.70
2018-08-27T01:07:56.419Z,1.50
2018-08-27T01:10:23.922Z,1.43
2018-08-27T01:12:51.313Z,1.57
2018-08-27T01:15:18.942Z,1.43
2018-08-27T01:17:46.418Z,1.50
2018-08-27T01:20:13.826Z,1.37
2018-08-27T01:22:41.793Z,1.50
2018-08-27T01:25:09.322Z,1.40
2018-08-27T01:27:38.349Z,1.50
2018-08-27T01:30:06.336Z,1.30
2018-08-27T01:32:33.673Z,1.50
2018-08-27T01:35:01.061Z,1.43
2018-08-27T01:37:28.670Z,1.13
2018-08-27T01:39:56.896Z,1.40
2018-08-27T01:42:25.179Z,1.30
2018-08-27T01:44:52.681Z,1.00
2018-08-27T01:47:20.845Z,1.50
2018-08-27T01:49:48.246Z,1.70
2018-08-27T01:52:15.653Z,1.43
2018-08-27T01:54:44.193Z,1.50
2018-08-27T01:57:11.890Z,1.77
2018-08-27T01:59:39.408Z,1.80
2018-08-27T02:02:08.060Z,1.23
2018-08-27T02:04:36.390Z,1.47
2018-08-27T02:07:05.617Z,1.30
2018-08-27T02:09:32.967Z,1.70
2018-08-27T02:12:01.103Z,1.60
2018-08-27T02:14:30.841Z,1.40
2018-08-27T02:16:58.885Z,1.60
2018-08-27T02:19:27.414Z,1.40
2018-08-27T02:21:54.867Z,1.80
2018-08-27T02:24:23.546Z,1.30
2018-08-27T02:26:51.579Z,1.40
2018-08-27T02:29:19.360Z,1.27
2018-08-27T02:31:47.078Z,1.17
2018-08-27T02:34:14.832Z,1.40
2018-08-27T02:36:42.653Z,1.07
2018-08-27T02:39:13.220Z,1.37
2018-08-27T02:41:44.258Z,1.50
2018-08-27T02:44:12.887Z,1.40
2018-08-27T02:46:41.469Z,1.30
2018-08-27T02:49:10.274Z,1.10
2018-08-27T02:51:38.384Z,1.13
2018-08-27T02:54:06.551Z,1.10
2018-08-27T02:56:34.585Z,1.77
2018-08-27T02:59:02.548Z,1.60
2018-08-27T03:01:32.555Z,1.47
2018-08-27T03:04:01.212Z,1.53
2018-08-27T03:06:29.261Z,1.50
2018-08-27T03:08:56.811Z,1.40
2018-08-27T03:11:26.087Z,1.60
2018-08-27T03:13:53.575Z,1.53
2018-08-27T03:16:22.884Z,1.67
2018-08-27T03:18:51.322Z,1.47
2018-08-27T03:21:19.329Z,1.43
2018-08-27T03:23:47.157Z,1.33
2018-08-27T03:26:17.095Z,1.80
2018-08-27T03:28:45.516Z,1.43
2018-08-27T03:31:15.347Z,1.40
2018-08-27T03:33:43.074Z,1.60
2018-08-27T03:36:10.610Z,1.53
2018-08-27T03:38:38.301Z,1.53
2018-08-27T03:41:06.474Z,1.70
2018-08-27T03:43:35.010Z,1.80
2018-08-27T03:46:03.880Z,1.40
2018-08-27T03:48:32.193Z,1.43
2018-08-27T03:51:00.578Z,1.60
2018-08-27T03:53:28.654Z,1.27
2018-08-27T03:55:57.968Z,1.50
2018-08-27T03:58:26.043Z,1.60
2018-08-27T04:00:54.459Z,1.73
2018-08-27T04:03:22.415Z,1.60
2018-08-27T04:05:50.303Z,1.70
2018-08-27T04:08:18.471Z,1.60
2018-08-27T04:10:46.410Z,1.70
2018-08-27T04:13:15.036Z,1.90
2018-08-27T04:15:44.222Z,2.20
2018-08-27T04:18:12.535Z,2.07
2018-08-27T04:20:41.772Z,1.53
2018-08-27T04:23:09.919Z,1.73
2018-08-27T04:25:37.800Z,2.47
2018-08-27T04:28:06.366Z,1.97
2018-08-27T04:30:35.655Z,2.20
2018-08-27T04:33:03.464Z,1.60
2018-08-27T04:35:31.912Z,1.60
2018-08-27T04:37:59.930Z,1.60
2018-08-27T04:40:27.768Z,2.37
2018-08-27T04:42:57.006Z,1.90
2018-08-27T04:45:25.518Z,1.57
2018-08-27T04:47:53.255Z,1.80
2018-08-27T04:50:22.163Z,1.90
2018-08-27T04:52:49.912Z,2.20
2018-08-27T04:55:18.278Z,1.70
2018-08-27T04:57:47.128Z,1.90
2018-08-27T05:00:50.319Z,1.60
2018-08-27T05:03:18.224Z,1.70
2018-08-27T05:05:46.220Z,1.90
2018-08-27T05:08:14.247Z,1.90
2018-08-27T05:10:41.974Z,1.77
2018-08-27T05:13:10.155Z,1.83
2018-08-27T05:15:40.890Z,1.90
2018-08-27T05:18:08.783Z,2.10
2018-08-27T05:20:36.191Z,1.90
2018-08-27T05:23:04.491Z,1.97
2018-08-27T05:25:31.908Z,2.30
2018-08-27T05:28:00.294Z,2.13
2018-08-27T05:30:27.791Z,2.00
2018-08-27T05:32:54.987Z,2.10
2018-08-27T05:35:22.234Z,2.30
2018-08-27T05:37:50.325Z,2.33
2018-08-27T05:40:17.545Z,2.30
2018-08-27T05:42:44.737Z,3.00
2018-08-27T05:45:11.965Z,2.50
2018-08-27T05:47:39.331Z,2.40
2018-08-27T05:50:06.592Z,2.60
2018-08-27T05:52:33.860Z,2.10
2018-08-27T05:55:01.321Z,3.10
2018-08-27T05:57:28.537Z,2.47
2018-08-27T05:59:57.120Z,2.50
2018-08-27T06:02:24.349Z,2.50
2018-08-27T06:04:51.604Z,2.80
2018-08-27T06:07:18.986Z,2.30
2018-08-27T06:09:46.827Z,2.23
2018-08-27T06:12:14.221Z,2.50
2018-08-27T06:14:41.485Z,2.00
2018-08-27T06:17:08.909Z,1.87
2018-08-27T06:19:36.582Z,1.60
2018-08-27T06:22:04.026Z,2.40
2018-08-27T06:24:31.384Z,1.90
2018-08-27T06:26:58.692Z,2.33
2018-08-27T06:29:25.869Z,1.87
2018-08-27T06:31:53.150Z,2.30
2018-08-27T06:34:20.448Z,1.70
2018-08-27T06:36:48.059Z,2.47
2018-08-27T06:39:15.815Z,1.90
2018-08-27T06:41:43.137Z,2.53
2018-08-27T06:44:10.422Z,2.83
2018-08-27T06:46:37.638Z,2.30
2018-08-27T06:49:05.099Z,3.70
2018-08-27T06:51:32.351Z,2.13
2018-08-27T06:53:59.640Z,2.57
2018-08-27T06:56:26.854Z,2.17
2018-08-27T06:58:54.089Z,1.67
2018-08-27T07:01:21.318Z,2.40
2018-08-27T07:03:49.039Z,2.17
2018-08-27T07:06:16.230Z,2.60
2018-08-27T07:08:43.460Z,2.20
2018-08-27T07:11:10.925Z,2.50
2018-08-27T07:13:38.166Z,2.20
2018-08-27T07:16:05.500Z,2.20
2018-08-27T07:18:33.514Z,2.20
2018-08-27T07:21:01.696Z,2.13
2018-08-27T07:23:29.209Z,2.27
2018-08-27T07:25:56.710Z,2.43
2018-08-27T07:28:24.077Z,3.20
2018-08-27T07:30:51.390Z,2.73
2018-08-27T07:33:18.879Z,2.90
2018-08-27T07:35:46.333Z,4.37
2018-08-27T07:38:13.550Z,2.53
2018-08-27T07:40:40.938Z,3.60
2018-08-27T07:43:08.330Z,2.23
2018-08-27T07:45:35.644Z,3.20
2018-08-27T07:48:02.907Z,2.90
2018-08-27T07:50:30.422Z,2.10
2018-08-27T07:52:57.820Z,2.30
2018-08-27T07:55:25.223Z,2.47
2018-08-27T07:57:52.456Z,2.80
2018-08-27T08:00:24.513Z,2.20
2018-08-27T08:02:53.223Z,3.43
2018-08-27T08:05:20.420Z,17.00
2018-08-27T08:07:48.123Z,16.17
2018-08-27T08:10:15.917Z,4.60
2018-08-27T08:12:43.186Z,6.90
2018-08-27T08:15:10.451Z,3.37
2018-08-27T08:17:37.671Z,4.30
2018-08-27T08:20:05.173Z,5.70
2018-08-27T08:22:32.761Z,4.30
2018-08-27T08:25:00.033Z,3.80
2018-08-27T08:27:27.295Z,4.20
2018-08-27T08:29:54.500Z,14.47
2018-08-27T08:32:21.743Z,17.10
2018-08-27T08:34:49.084Z,6.47
2018-08-27T08:37:16.588Z,16.00
2018-08-27T08:39:43.909Z,28.27
2018-08-27T08:42:11.300Z,12.80
2018-08-27T08:44:38.777Z,25.57
2018-08-27T08:47:06.185Z,15.03
2018-08-27T08:49:33.822Z,12.50
2018-08-27T08:52:01.256Z,11.17
2018-08-27T08:54:28.916Z,9.97
2018-08-27T08:56:56.292Z,4.97
2018-08-27T08:59:23.697Z,13.47
2018-08-27T09:01:50.885Z,9.57
2018-08-27T09:04:18.149Z,5.83
2018-08-27T09:06:45.398Z,7.57
2018-08-27T09:09:12.681Z,9.07
2018-08-27T09:11:40.202Z,9.50
2018-08-27T09:14:07.563Z,10.20
2018-08-27T09:16:35.181Z,5.77
2018-08-27T09:19:02.642Z,8.67
2018-08-27T09:21:29.954Z,6.40
2018-08-27T09:23:57.197Z,5.07
2018-08-27T09:26:24.455Z,4.87
2018-08-27T09:28:51.713Z,4.20
2018-08-27T09:31:19.414Z,3.17
2018-08-27T09:33:46.633Z,6.17
2018-08-27T09:36:13.916Z,4.20
2018-08-27T09:38:41.313Z,5.83
2018-08-27T09:41:08.549Z,5.30
2018-08-27T09:43:35.787Z,4.80
2018-08-27T09:46:03.451Z,3.77
2018-08-27T09:48:30.697Z,32.50
2018-08-27T09:50:57.978Z,8.87
2018-08-27T09:53:25.202Z,5.80
2018-08-27T09:55:52.509Z,4.17
2018-08-27T09:58:19.725Z,3.27
2018-08-27T10:00:52.580Z,4.50
2018-08-27T10:03:19.787Z,3.80
2018-08-27T10:05:47.026Z,5.03
2018-08-27T10:08:14.368Z,3.23
2018-08-27T10:10:41.657Z,4.93
2018-08-27T10:13:08.913Z,4.40
2018-08-27T10:15:36.314Z,2.60
2018-08-27T10:18:03.570Z,3.70
2018-08-27T10:20:30.769Z,2.83
2018-08-27T10:22:57.960Z,2.73
2018-08-27T10:25:25.194Z,2.90
2018-08-27T10:27:52.450Z,3.10
2018-08-27T10:30:19.723Z,3.83
2018-08-27T10:32:47.400Z,3.40
2018-08-27T10:35:14.635Z,2.37
2018-08-27T10:37:41.847Z,4.13
2018-08-27T10:40:09.055Z,3.80
2018-08-27T10:42:36.304Z,4.50
2018-08-27T10:45:03.614Z,3.80
2018-08-27T10:47:30.915Z,1.83
2018-08-27T10:49:58.173Z,2.33
2018-08-27T10:52:25.454Z,1.97
2018-08-27T10:54:52.812Z,4.07
2018-08-27T10:57:20.187Z,4.43
2018-08-27T10:59:47.796Z,2.10
2018-08-27T11:02:15.050Z,3.23
2018-08-27T11:04:42.349Z,2.47
2018-08-27T11:07:09.583Z,5.50
2018-08-27T11:09:36.835Z,4.07
2018-08-27T11:12:04.399Z,3.80
2018-08-27T11:14:31.874Z,3.10
2018-08-27T11:16:59.313Z,5.33
2018-08-27T11:19:26.813Z,3.13
2018-08-27T11:21:54.028Z,3.50
2018-08-27T11:24:22.226Z,3.40
2018-08-27T11:26:50.019Z,4.70
2018-08-27T11:29:18.438Z,2.90
2018-08-27T11:31:46.202Z,3.43
2018-08-27T11:34:13.922Z,2.67
2018-08-27T11:36:41.247Z,4.53
2018-08-27T11:39:10.626Z,3.20
2018-08-27T11:41:38.243Z,3.27
2018-08-27T11:44:06.177Z,3.63
2018-08-27T11:46:33.425Z,3.57
2018-08-27T11:49:00.926Z,2.90
2018-08-27T11:51:28.264Z,3.93
2018-08-27T11:53:55.628Z,3.60
2018-08-27T11:56:22.859Z,4.50
2018-08-27T11:58:50.131Z,3.90
2018-08-27T12:01:17.574Z,3.00
2018-08-27T12:03:44.798Z,3.73
2018-08-27T12:06:12.361Z,3.30
2018-08-27T12:08:39.632Z,3.00
2018-08-27T12:11:07.259Z,3.00
2018-08-27T12:13:34.611Z,2.50
2018-08-27T12:16:01.974Z,4.17
2018-08-27T12:18:29.162Z,3.17
2018-08-27T12:20:56.513Z,3.57
2018-08-27T12:23:23.945Z,3.30
2018-08-27T12:25:51.218Z,2.73
2018-08-27T12:28:19.154Z,3.00
2018-08-27T12:30:46.508Z,2.87
2018-08-27T12:33:13.676Z,3.30
2018-08-27T12:35:40.963Z,3.50
2018-08-27T12:38:08.419Z,3.50
2018-08-27T12:40:35.981Z,3.80
2018-08-27T12:43:03.286Z,4.10
2018-08-27T12:45:30.476Z,2.70
2018-08-27T12:47:57.835Z,3.67
2018-08-27T12:50:25.117Z,3.80
2018-08-27T12:52:52.469Z,3.00
2018-08-27T12:55:19.757Z,3.00
2018-08-27T12:57:47.420Z,2.90
2018-08-27T13:00:16.340Z,2.60
2018-08-27T13:02:44.457Z,3.23
2018-08-27T13:05:11.875Z,2.70
2018-08-27T13:07:39.586Z,3.67
2018-08-27T13:10:06.786Z,2.93
2018-08-27T13:12:33.966Z,3.50
2018-08-27T13:15:01.246Z,3.10
2018-08-27T13:17:28.756Z,3.73
2018-08-27T13:19:55.987Z,2.80
2018-08-27T13:22:23.238Z,3.27
2018-08-27T13:24:50.438Z,3.20
2018-08-27T13:27:17.635Z,3.20
2018-08-27T13:29:45.352Z,2.60
2018-08-27T13:32:12.839Z,8.00
2018-08-27T13:34:40.342Z,2.77
2018-08-27T13:37:07.670Z,2.70
2018-08-27T13:39:34.880Z,2.90
2018-08-27T13:42:02.740Z,2.90
2018-08-27T13:44:29.923Z,3.27
2018-08-27T13:46:57.311Z,2.80
2018-08-27T13:49:24.533Z,3.40
2018-08-27T13:51:56.085Z,2.40
2018-08-27T13:54:23.318Z,2.80
2018-08-27T13:56:50.618Z,2.60
2018-08-27T13:59:17.825Z,3.20
2018-08-27T14:01:45.102Z,2.70
2018-08-27T14:04:12.323Z,3.67
2018-08-27T14:06:39.748Z,2.90
2018-08-27T14:09:07.604Z,2.70
2018-08-27T14:11:34.764Z,2.43
2018-08-27T14:14:02.167Z,3.33
2018-08-27T14:16:29.939Z,2.53
2018-08-27T14:18:57.208Z,2.30
2018-08-27T14:21:24.413Z,2.30
2018-08-27T14:23:52.000Z,2.33
2018-08-27T14:26:19.468Z,2.17
2018-08-27T14:28:46.658Z,2.60
2018-08-27T14:31:13.930Z,2.00
2018-08-27T14:33:41.130Z,2.13
2018-08-27T14:36:08.339Z,2.70
2018-08-27T14:38:35.843Z,2.40
2018-08-27T14:41:03.000Z,2.30
2018-08-27T14:43:30.219Z,2.30
2018-08-27T14:45:57.482Z,2.30
2018-08-27T14:48:24.689Z,2.17
2018-08-27T14:50:51.940Z,2.30
2018-08-27T14:53:19.329Z,2.40
2018-08-27T14:55:46.564Z,1.80
2018-08-27T14:58:13.797Z,2.50
2018-08-27T15:00:45.420Z,2.30
2018-08-27T15:03:13.791Z,2.90
2018-08-27T15:05:40.934Z,2.33
2018-08-27T15:08:09.460Z,2.67
2018-08-27T15:10:36.701Z,2.67
2018-08-27T15:13:03.934Z,2.30
2018-08-27T15:15:31.558Z,2.77
2018-08-27T15:17:58.809Z,3.00
2018-08-27T15:20:26.081Z,2.70
2018-08-27T15:22:53.393Z,2.67
2018-08-27T15:25:20.618Z,2.57
2018-08-27T15:27:47.947Z,3.07
2018-08-27T15:30:15.834Z,2.80
2018-08-27T15:32:43.102Z,3.30
2018-08-27T15:35:11.208Z,2.70
2018-08-27T15:37:38.643Z,3.50
2018-08-27T15:40:05.963Z,3.27
2018-08-27T15:42:33.353Z,2.90
2018-08-27T15:45:05.222Z,2.47
2018-08-27T15:47:32.478Z,3.10
2018-08-27T15:49:59.695Z,3.80
2018-08-27T15:52:26.963Z,2.47
2018-08-27T15:54:54.174Z,2.10
2018-08-27T15:57:21.454Z,3.90
2018-08-27T15:59:48.666Z,2.30
2018-08-27T16:02:15.954Z,2.57
2018-08-27T16:04:43.176Z,2.70
2018-08-27T16:07:10.452Z,2.50
2018-08-27T16:09:37.667Z,2.90
2018-08-27T16:12:05.014Z,2.80
2018-08-27T16:14:32.318Z,2.80
2018-08-27T16:16:59.741Z,2.80
2018-08-27T16:19:27.040Z,1.70
2018-08-27T16:21:54.287Z,2.73
2018-08-27T16:24:21.506Z,2.87
2018-08-27T16:26:48.776Z,2.80
2018-08-27T16:29:16.050Z,5.10
2018-08-27T16:31:43.468Z,3.50
2018-08-27T16:34:10.774Z,3.20
2018-08-27T16:36:39.353Z,3.30
2018-08-27T16:39:07.409Z,3.77
2018-08-27T16:41:35.197Z,4.27
2018-08-27T16:44:02.623Z,3.50
2018-08-27T16:46:30.266Z,4.80
2018-08-27T16:48:57.731Z,4.53
2018-08-27T16:51:24.916Z,4.15
2018-08-27T16:53:53.348Z,4.13
2018-08-27T16:56:21.379Z,3.90
2018-08-27T16:58:48.797Z,3.90
2018-08-27T17:01:16.993Z,3.83
2018-08-27T17:03:45.289Z,4.50
2018-08-27T17:06:12.616Z,4.23
2018-08-27T17:08:39.943Z,6.00
2018-08-27T17:11:07.246Z,5.30
2018-08-27T17:13:36.802Z,4.47
2018-08-27T17:16:04.018Z,4.50
2018-08-27T17:18:31.264Z,5.10
2018-08-27T17:20:58.708Z,4.20
2018-08-27T17:23:26.274Z,4.10
2018-08-27T17:25:53.601Z,3.83
2018-08-27T17:28:20.852Z,5.40
2018-08-27T17:30:48.198Z,4.80
2018-08-27T17:33:15.440Z,5.83
2018-08-27T17:35:42.660Z,4.00
2018-08-27T17:38:10.124Z,6.40
2018-08-27T17:40:37.473Z,6.73
2018-08-27T17:43:04.787Z,4.80
2018-08-27T17:45:32.234Z,4.40
2018-08-27T17:48:00.235Z,4.10
2018-08-27T17:50:27.744Z,4.67
2018-08-27T17:52:55.293Z,4.00
2018-08-27T17:55:23.056Z,4.03
2018-08-27T17:57:50.577Z,6.30
2018-08-27T18:00:17.934Z,3.60
2018-08-27T18:02:45.691Z,5.27
2018-08-27T18:05:13.188Z,3.33
2018-08-27T18:07:40.806Z,3.10
2018-08-27T18:10:08.134Z,4.13
2018-08-27T18:12:35.610Z,4.80
2018-08-27T18:15:02.728Z,4.60
2018-08-27T18:17:30.200Z,5.43
2018-08-27T18:19:57.755Z,3.57
2018-08-27T18:22:25.426Z,3.40
2018-08-27T18:24:52.831Z,3.10
2018-08-27T18:27:20.175Z,4.40
2018-08-27T18:29:48.881Z,3.70
2018-08-27T18:32:16.769Z,4.27
2018-08-27T18:34:44.126Z,3.00
2018-08-27T18:37:11.992Z,5.50
2018-08-27T18:39:39.644Z,4.10
2018-08-27T18:42:07.003Z,6.93
2018-08-27T18:44:34.690Z,3.47
2018-08-27T18:47:02.644Z,3.20
2018-08-27T18:49:31.123Z,2.80
2018-08-27T18:51:58.412Z,2.90
2018-08-27T18:54:26.250Z,2.30
2018-08-27T18:56:53.981Z,2.80
2018-08-27T18:59:21.736Z,5.63
2018-08-27T19:01:49.543Z,7.60
2018-08-27T19:04:17.607Z,4.97
2018-08-27T19:06:45.627Z,2.97
2018-08-27T19:09:13.439Z,2.83
2018-08-27T19:11:41.217Z,5.37
2018-08-27T19:14:09.087Z,7.93
2018-08-27T19:16:37.507Z,3.57
2018-08-27T19:19:05.423Z,2.90
2018-08-27T19:21:33.268Z,2.73
2018-08-27T19:24:00.990Z,3.97
2018-08-27T19:26:29.141Z,3.27
2018-08-27T19:28:56.802Z,3.77
2018-08-27T19:31:24.830Z,7.90
2018-08-27T19:33:52.695Z,2.60
2018-08-27T19:36:20.969Z,2.77
2018-08-27T19:38:48.891Z,3.77
2018-08-27T19:41:16.662Z,3.30
2018-08-27T19:43:44.638Z,6.60
2018-08-27T19:46:12.644Z,3.90
2018-08-27T19:48:39.907Z,4.20
2018-08-27T19:51:07.187Z,3.87
2018-08-27T19:53:35.480Z,4.60
2018-08-27T19:56:02.856Z,4.03
2018-08-27T19:58:31.001Z,5.27
2018-08-27T20:00:58.822Z,6.40
2018-08-27T20:03:26.733Z,3.47
2018-08-27T20:05:54.060Z,9.97
2018-08-27T20:08:21.895Z,6.03
2018-08-27T20:10:49.461Z,7.40
2018-08-27T20:13:17.391Z,3.90
2018-08-27T20:15:44.926Z,3.20
2018-08-27T20:18:12.201Z,3.83
2018-08-27T20:20:39.528Z,4.00
2018-08-27T20:23:07.228Z,3.70
2018-08-27T20:25:34.712Z,3.50
2018-08-27T20:28:02.103Z,3.70
2018-08-27T20:30:29.522Z,3.60
2018-08-27T20:32:56.967Z,3.77
2018-08-27T20:35:24.331Z,3.60
2018-08-27T20:37:51.626Z,4.60
2018-08-27T20:40:19.382Z,4.37
2018-08-27T20:42:46.735Z,4.30
2018-08-27T20:45:14.043Z,6.40
2018-08-27T20:47:41.284Z,4.57
2018-08-27T20:50:08.668Z,4.27
2018-08-27T20:52:35.958Z,4.10
2018-08-27T20:55:03.690Z,4.17
2018-08-27T20:57:35.060Z,4.53
2018-08-27T21:00:11.408Z,3.80
2018-08-27T21:02:41.006Z,3.63
2018-08-27T21:05:10.400Z,4.30
2018-08-27T21:07:39.934Z,3.53
2018-08-27T21:10:13.053Z,3.93
2018-08-27T21:12:45.919Z,3.53
2018-08-27T21:15:20.929Z,3.80
2018-08-27T21:17:55.769Z,4.10
2018-08-27T21:20:26.914Z,4.60
2018-08-27T21:23:05.018Z,4.37
2018-08-27T21:25:44.302Z,4.20
2018-08-27T21:28:11.827Z,4.00
2018-08-27T21:30:57.658Z,4.63
2018-08-27T21:36:27.421Z,5.40
2018-08-27T21:39:17.707Z,4.43
2018-08-27T21:41:46.842Z,5.27
2018-08-27T21:44:14.159Z,5.53
2018-08-27T21:46:41.481Z,5.60
2018-08-27T21:49:09.040Z,5.53
2018-08-27T21:51:37.014Z,5.43
2018-08-27T21:54:04.723Z,5.10
2018-08-27T21:56:33.134Z,4.90
2018-08-27T21:59:00.747Z,5.23
2018-08-27T22:01:28.204Z,5.40
2018-08-27T22:04:00.969Z,5.70
2018-08-27T22:06:28.403Z,5.43
2018-08-27T22:08:55.630Z,5.23
2018-08-27T22:11:22.948Z,5.00
2018-08-27T22:13:50.243Z,4.87
2018-08-27T22:16:17.468Z,4.43
2018-08-27T22:18:44.739Z,4.90
2018-08-27T22:21:12.255Z,5.20
2018-08-27T22:23:39.595Z,5.07
2018-08-27T22:26:06.871Z,5.30
2018-08-27T22:28:34.164Z,5.00
2018-08-27T22:31:10.164Z,5.07
2018-08-27T22:33:38.070Z,4.67
2018-08-27T22:36:05.286Z,4.43
2018-08-27T22:38:32.706Z,4.83
2018-08-27T22:41:00.154Z,5.03
2018-08-27T22:43:27.470Z,4.93
2018-08-27T22:45:54.692Z,5.40
2018-08-27T22:48:22.030Z,4.53
2018-08-27T22:52:13.732Z,4.90
2018-08-27T22:54:41.051Z,5.10
2018-08-27T22:57:08.821Z,5.10
2018-08-27T22:59:39.521Z,4.83
2018-08-27T23:05:04.839Z,4.73
2018-08-27T23:07:32.215Z,5.00
2018-08-27T23:12:45.340Z,4.80
2018-08-27T23:15:14.639Z,5.00
2018-08-27T23:17:53.817Z,5.60
2018-08-27T23:23:16.587Z,5.17
2018-08-27T23:25:44.793Z,5.23
2018-08-27T23:28:12.130Z,5.40
2018-08-27T23:30:40.535Z,5.07
2018-08-27T23:33:08.080Z,4.60
2018-08-27T23:35:36.458Z,4.70
2018-08-27T23:38:13.170Z,4.90
2018-08-27T23:40:44.105Z,4.33
2018-08-27T23:43:15.151Z,5.17
2018-08-27T23:45:44.390Z,4.90
2018-08-27T23:48:13.080Z,4.83
2018-08-27T23:50:42.989Z,5.00
2018-08-27T23:53:11.599Z,5.10
2018-08-27T23:55:40.310Z,5.30
2018-08-27T23:58:09.564Z,5.00
